sensor_id;sensor_type;location;lat;lon;timestamp;P1;durP1;ratioP1;P2;durP2;ratioP2
74267;SDS011;62638;51.362;12.472;2022-08-30T00:01:13;18.33;;;9.18;;
74267;SDS011;62638;51.362;12.472;2022-08-30T00:03:45;17.75;;;9.20;;
74267;SDS011;62638;51.362;12.472;2022-08-30T00:06:11;17.58;;;10.68;;
74267;SDS011;62638;51.362;12.472;2022-08-30T00:11:23;20.23;;;10.40;;
74267;SDS011;62638;51.362;12.472;2022-08-30T00:13:52;20.67;;;10.02;;
74267;SDS011;62638;51.362;12.472;2022-08-30T00:16:19;16.50;;;9.93;;
74267;SDS011;62638;51.362;12.472;2022-08-30T00:18:46;18.05;;;9.45;;
74267;SDS011;62638;51.362;12.472;2022-08-30T00:21:12;18.45;;;10.52;;
74267;SDS011;62638;51.362;12.472;2022-08-30T00:23:39;16.30;;;9.25;;
74267;SDS011;62638;51.362;12.472;2022-08-30T00:26:05;17.00;;;9.60;;
74267;SDS011;62638;51.362;12.472;2022-08-30T00:28:31;16.10;;;8.70;;
74267;SDS011;62638;51.362;12.472;2022-08-30T00:31:02;17.65;;;9.10;;
74267;SDS011;62638;51.362;12.472;2022-08-30T00:33:28;17.17;;;9.05;;
74267;SDS011;62638;51.362;12.472;2022-08-30T00:35:54;14.52;;;9.00;;
74267;SDS011;62638;51.362;12.472;2022-08-30T00:38:20;13.38;;;8.60;;
74267;SDS011;62638;51.362;12.472;2022-08-30T00:40:47;21.67;;;9.73;;
74267;SDS011;62638;51.362;12.472;2022-08-30T00:43:15;17.15;;;8.98;;
74267;SDS011;62638;51.362;12.472;2022-08-30T00:45:45;13.15;;;9.18;;
74267;SDS011;62638;51.362;12.472;2022-08-30T00:48:11;18.20;;;9.07;;
74267;SDS011;62638;51.362;12.472;2022-08-30T00:50:37;20.85;;;10.73;;
74267;SDS011;62638;51.362;12.472;2022-08-30T00:53:08;20.17;;;10.65;;
74267;SDS011;62638;51.362;12.472;2022-08-30T00:55:37;19.85;;;11.52;;
74267;SDS011;62638;51.362;12.472;2022-08-30T00:58:04;26.00;;;12.63;;
74267;SDS011;62638;51.362;12.472;2022-08-30T01:00:32;26.52;;;13.65;;
74267;SDS011;62638;51.362;12.472;2022-08-30T01:02:59;29.25;;;13.45;;
74267;SDS011;62638;51.362;12.472;2022-08-30T01:05:24;22.77;;;12.17;;
74267;SDS011;62638;51.362;12.472;2022-08-30T01:07:50;22.23;;;12.40;;
74267;SDS011;62638;51.362;12.472;2022-08-30T01:10:15;18.13;;;10.82;;
74267;SDS011;62638;51.362;12.472;2022-08-30T01:12:41;20.30;;;11.20;;
74267;SDS011;62638;51.362;12.472;2022-08-30T01:15:09;19.95;;;10.77;;
74267;SDS011;62638;51.362;12.472;2022-08-30T01:17:41;21.63;;;11.38;;
74267;SDS011;62638;51.362;12.472;2022-08-30T01:20:11;21.65;;;11.18;;
74267;SDS011;62638;51.362;12.472;2022-08-30T01:23:21;21.58;;;11.18;;
74267;SDS011;62638;51.362;12.472;2022-08-30T01:25:30;21.88;;;10.65;;
74267;SDS011;62638;51.362;12.472;2022-08-30T01:28:06;20.52;;;11.48;;
74267;SDS011;62638;51.362;12.472;2022-08-30T01:30:35;21.45;;;10.25;;
74267;SDS011;62638;51.362;12.472;2022-08-30T01:33:05;26.52;;;11.77;;
74267;SDS011;62638;51.362;12.472;2022-08-30T01:35:55;22.73;;;11.73;;
74267;SDS011;62638;51.362;12.472;2022-08-30T01:38:26;21.55;;;12.27;;
74267;SDS011;62638;51.362;12.472;2022-08-30T01:40:58;17.58;;;10.13;;
74267;SDS011;62638;51.362;12.472;2022-08-30T01:43:25;18.90;;;11.55;;
74267;SDS011;62638;51.362;12.472;2022-08-30T01:45:52;33.15;;;11.43;;
74267;SDS011;62638;51.362;12.472;2022-08-30T01:48:19;20.45;;;12.25;;
74267;SDS011;62638;51.362;12.472;2022-08-30T01:53:12;27.98;;;13.55;;
74267;SDS011;62638;51.362;12.472;2022-08-30T01:55:37;27.10;;;14.15;;
74267;SDS011;62638;51.362;12.472;2022-08-30T01:58:03;30.42;;;13.68;;
74267;SDS011;62638;51.362;12.472;2022-08-30T02:00:29;33.05;;;13.82;;
74267;SDS011;62638;51.362;12.472;2022-08-30T02:02:54;25.15;;;13.13;;
74267;SDS011;62638;51.362;12.472;2022-08-30T02:05:22;21.02;;;12.73;;
74267;SDS011;62638;51.362;12.472;2022-08-30T02:07:47;25.50;;;13.73;;
74267;SDS011;62638;51.362;12.472;2022-08-30T02:10:13;26.00;;;14.03;;
74267;SDS011;62638;51.362;12.472;2022-08-30T02:12:42;25.83;;;13.65;;
74267;SDS011;62638;51.362;12.472;2022-08-30T02:15:07;25.52;;;13.65;;
74267;SDS011;62638;51.362;12.472;2022-08-30T02:17:33;26.35;;;13.75;;
74267;SDS011;62638;51.362;12.472;2022-08-30T02:19:59;28.35;;;15.50;;
74267;SDS011;62638;51.362;12.472;2022-08-30T02:22:26;27.02;;;14.82;;
74267;SDS011;62638;51.362;12.472;2022-08-30T02:24:51;32.45;;;15.43;;
74267;SDS011;62638;51.362;12.472;2022-08-30T02:27:16;28.77;;;15.40;;
74267;SDS011;62638;51.362;12.472;2022-08-30T02:29:41;29.10;;;15.38;;
74267;SDS011;62638;51.362;12.472;2022-08-30T02:32:07;36.00;;;17.27;;
74267;SDS011;62638;51.362;12.472;2022-08-30T02:34:32;36.10;;;17.38;;
74267;SDS011;62638;51.362;12.472;2022-08-30T02:36:57;29.93;;;14.50;;
74267;SDS011;62638;51.362;12.472;2022-08-30T02:39:23;31.65;;;15.55;;
74267;SDS011;62638;51.362;12.472;2022-08-30T02:41:48;33.72;;;15.32;;
74267;SDS011;62638;51.362;12.472;2022-08-30T02:44:13;38.38;;;16.77;;
74267;SDS011;62638;51.362;12.472;2022-08-30T02:46:39;31.13;;;15.75;;
74267;SDS011;62638;51.362;12.472;2022-08-30T02:49:04;37.63;;;16.77;;
74267;SDS011;62638;51.362;12.472;2022-08-30T02:51:32;34.67;;;15.55;;
74267;SDS011;62638;51.362;12.472;2022-08-30T02:53:58;33.47;;;16.95;;
74267;SDS011;62638;51.362;12.472;2022-08-30T02:56:23;34.00;;;16.40;;
74267;SDS011;62638;51.362;12.472;2022-08-30T02:58:49;33.70;;;15.80;;
74267;SDS011;62638;51.362;12.472;2022-08-30T03:01:14;29.40;;;14.00;;
74267;SDS011;62638;51.362;12.472;2022-08-30T03:03:41;28.95;;;14.60;;
74267;SDS011;62638;51.362;12.472;2022-08-30T03:06:08;29.65;;;13.77;;
74267;SDS011;62638;51.362;12.472;2022-08-30T03:08:35;29.40;;;13.90;;
74267;SDS011;62638;51.362;12.472;2022-08-30T03:11:01;33.03;;;15.55;;
74267;SDS011;62638;51.362;12.472;2022-08-30T03:13:28;33.13;;;16.33;;
74267;SDS011;62638;51.362;12.472;2022-08-30T03:15:54;34.67;;;15.95;;
74267;SDS011;62638;51.362;12.472;2022-08-30T03:18:25;35.67;;;16.42;;
74267;SDS011;62638;51.362;12.472;2022-08-30T03:20:51;34.20;;;16.20;;
74267;SDS011;62638;51.362;12.472;2022-08-30T03:23:17;37.13;;;16.92;;
74267;SDS011;62638;51.362;12.472;2022-08-30T03:25:43;36.40;;;17.13;;
74267;SDS011;62638;51.362;12.472;2022-08-30T03:28:09;40.47;;;17.08;;
74267;SDS011;62638;51.362;12.472;2022-08-30T03:30:34;36.50;;;16.60;;
74267;SDS011;62638;51.362;12.472;2022-08-30T03:33:00;39.97;;;17.13;;
74267;SDS011;62638;51.362;12.472;2022-08-30T03:35:26;39.63;;;16.90;;
74267;SDS011;62638;51.362;12.472;2022-08-30T03:37:52;38.63;;;16.65;;
74267;SDS011;62638;51.362;12.472;2022-08-30T03:40:18;48.00;;;19.23;;
74267;SDS011;62638;51.362;12.472;2022-08-30T03:42:45;41.00;;;17.90;;
74267;SDS011;62638;51.362;12.472;2022-08-30T03:45:12;33.67;;;16.02;;
74267;SDS011;62638;51.362;12.472;2022-08-30T03:47:39;38.08;;;15.63;;
74267;SDS011;62638;51.362;12.472;2022-08-30T03:50:05;43.47;;;17.80;;
74267;SDS011;62638;51.362;12.472;2022-08-30T03:52:32;50.33;;;19.67;;
74267;SDS011;62638;51.362;12.472;2022-08-30T03:54:57;36.03;;;17.55;;
74267;SDS011;62638;51.362;12.472;2022-08-30T03:57:24;37.15;;;15.82;;
74267;SDS011;62638;51.362;12.472;2022-08-30T03:59:51;29.20;;;13.93;;
74267;SDS011;62638;51.362;12.472;2022-08-30T04:02:16;35.13;;;15.52;;
74267;SDS011;62638;51.362;12.472;2022-08-30T04:04:41;33.97;;;14.80;;
74267;SDS011;62638;51.362;12.472;2022-08-30T04:07:07;31.65;;;15.13;;
74267;SDS011;62638;51.362;12.472;2022-08-30T04:09:33;35.10;;;14.63;;
74267;SDS011;62638;51.362;12.472;2022-08-30T04:12:00;39.22;;;16.80;;
74267;SDS011;62638;51.362;12.472;2022-08-30T04:14:25;38.47;;;16.60;;
74267;SDS011;62638;51.362;12.472;2022-08-30T04:16:52;34.40;;;14.23;;
74267;SDS011;62638;51.362;12.472;2022-08-30T04:19:17;30.60;;;14.23;;
74267;SDS011;62638;51.362;12.472;2022-08-30T04:21:42;32.72;;;15.02;;
74267;SDS011;62638;51.362;12.472;2022-08-30T04:24:10;39.35;;;16.60;;
74267;SDS011;62638;51.362;12.472;2022-08-30T04:26:36;41.40;;;16.90;;
74267;SDS011;62638;51.362;12.472;2022-08-30T04:29:02;43.38;;;17.83;;
74267;SDS011;62638;51.362;12.472;2022-08-30T04:31:28;38.28;;;16.83;;
74267;SDS011;62638;51.362;12.472;2022-08-30T04:33:53;37.42;;;15.70;;
74267;SDS011;62638;51.362;12.472;2022-08-30T04:36:18;39.13;;;16.50;;
74267;SDS011;62638;51.362;12.472;2022-08-30T04:38:43;43.55;;;17.60;;
74267;SDS011;62638;51.362;12.472;2022-08-30T04:41:10;43.50;;;18.55;;
74267;SDS011;62638;51.362;12.472;2022-08-30T04:43:41;36.28;;;17.35;;
74267;SDS011;62638;51.362;12.472;2022-08-30T04:46:08;43.60;;;16.98;;
74267;SDS011;62638;51.362;12.472;2022-08-30T04:48:34;37.70;;;17.17;;
74267;SDS011;62638;51.362;12.472;2022-08-30T04:51:07;34.83;;;15.70;;
74267;SDS011;62638;51.362;12.472;2022-08-30T04:53:38;37.88;;;16.58;;
74267;SDS011;62638;51.362;12.472;2022-08-30T04:56:08;42.92;;;19.23;;
74267;SDS011;62638;51.362;12.472;2022-08-30T04:58:45;40.85;;;18.50;;
74267;SDS011;62638;51.362;12.472;2022-08-30T05:01:16;44.92;;;19.15;;
74267;SDS011;62638;51.362;12.472;2022-08-30T05:03:45;42.55;;;18.48;;
74267;SDS011;62638;51.362;12.472;2022-08-30T05:06:11;36.72;;;18.13;;
74267;SDS011;62638;51.362;12.472;2022-08-30T05:08:37;35.20;;;17.58;;
74267;SDS011;62638;51.362;12.472;2022-08-30T05:11:03;35.97;;;16.60;;
74267;SDS011;62638;51.362;12.472;2022-08-30T05:13:31;28.75;;;14.40;;
74267;SDS011;62638;51.362;12.472;2022-08-30T05:15:57;21.63;;;13.60;;
74267;SDS011;62638;51.362;12.472;2022-08-30T05:18:25;18.33;;;11.75;;
74267;SDS011;62638;51.362;12.472;2022-08-30T05:21:01;20.92;;;11.57;;
74267;SDS011;62638;51.362;12.472;2022-08-30T05:23:49;19.95;;;10.95;;
74267;SDS011;62638;51.362;12.472;2022-08-30T05:26:19;18.65;;;11.07;;
74267;SDS011;62638;51.362;12.472;2022-08-30T05:28:47;23.45;;;13.77;;
74267;SDS011;62638;51.362;12.472;2022-08-30T05:31:14;21.88;;;11.70;;
74267;SDS011;62638;51.362;12.472;2022-08-30T05:33:49;18.33;;;10.68;;
74267;SDS011;62638;51.362;12.472;2022-08-30T05:36:16;17.50;;;10.43;;
74267;SDS011;62638;51.362;12.472;2022-08-30T05:38:44;21.63;;;11.55;;
74267;SDS011;62638;51.362;12.472;2022-08-30T05:41:09;20.13;;;10.45;;
74267;SDS011;62638;51.362;12.472;2022-08-30T05:43:35;17.08;;;10.18;;
74267;SDS011;62638;51.362;12.472;2022-08-30T05:46:01;15.43;;;8.77;;
74267;SDS011;62638;51.362;12.472;2022-08-30T05:48:29;21.70;;;8.90;;
74267;SDS011;62638;51.362;12.472;2022-08-30T05:51:05;13.18;;;7.30;;
74267;SDS011;62638;51.362;12.472;2022-08-30T05:53:31;16.70;;;9.65;;
74267;SDS011;62638;51.362;12.472;2022-08-30T05:55:59;14.38;;;8.70;;
74267;SDS011;62638;51.362;12.472;2022-08-30T05:58:28;11.70;;;7.82;;
74267;SDS011;62638;51.362;12.472;2022-08-30T06:00:54;11.35;;;8.18;;
74267;SDS011;62638;51.362;12.472;2022-08-30T06:03:19;14.83;;;7.27;;
74267;SDS011;62638;51.362;12.472;2022-08-30T06:05:45;20.17;;;8.77;;
74267;SDS011;62638;51.362;12.472;2022-08-30T06:08:10;14.07;;;8.55;;
74267;SDS011;62638;51.362;12.472;2022-08-30T06:10:35;11.37;;;7.83;;
74267;SDS011;62638;51.362;12.472;2022-08-30T06:13:00;12.68;;;7.05;;
74267;SDS011;62638;51.362;12.472;2022-08-30T06:15:26;11.67;;;7.90;;
74267;SDS011;62638;51.362;12.472;2022-08-30T06:17:51;14.00;;;9.00;;
74267;SDS011;62638;51.362;12.472;2022-08-30T06:20:16;15.40;;;8.90;;
74267;SDS011;62638;51.362;12.472;2022-08-30T06:22:44;14.68;;;8.02;;
74267;SDS011;62638;51.362;12.472;2022-08-30T06:25:10;13.85;;;8.57;;
74267;SDS011;62638;51.362;12.472;2022-08-30T06:27:35;14.35;;;9.60;;
74267;SDS011;62638;51.362;12.472;2022-08-30T06:30:04;12.68;;;8.75;;
74267;SDS011;62638;51.362;12.472;2022-08-30T06:32:34;10.38;;;7.78;;
74267;SDS011;62638;51.362;12.472;2022-08-30T06:35:01;12.18;;;8.43;;
74267;SDS011;62638;51.362;12.472;2022-08-30T06:37:28;17.02;;;8.88;;
74267;SDS011;62638;51.362;12.472;2022-08-30T06:39:55;11.77;;;7.53;;
74267;SDS011;62638;51.362;12.472;2022-08-30T06:42:22;13.48;;;8.10;;
74267;SDS011;62638;51.362;12.472;2022-08-30T06:44:48;14.27;;;7.90;;
74267;SDS011;62638;51.362;12.472;2022-08-30T06:47:13;12.73;;;7.78;;
74267;SDS011;62638;51.362;12.472;2022-08-30T06:49:38;17.52;;;9.35;;
74267;SDS011;62638;51.362;12.472;2022-08-30T06:52:05;13.65;;;7.85;;
74267;SDS011;62638;51.362;12.472;2022-08-30T06:54:30;16.00;;;8.48;;
74267;SDS011;62638;51.362;12.472;2022-08-30T06:56:55;13.65;;;8.25;;
74267;SDS011;62638;51.362;12.472;2022-08-30T06:59:21;12.05;;;7.85;;
74267;SDS011;62638;51.362;12.472;2022-08-30T07:01:46;12.30;;;8.27;;
74267;SDS011;62638;51.362;12.472;2022-08-30T07:04:12;14.90;;;8.02;;
74267;SDS011;62638;51.362;12.472;2022-08-30T07:06:39;14.37;;;8.73;;
74267;SDS011;62638;51.362;12.472;2022-08-30T07:09:04;12.75;;;8.25;;
74267;SDS011;62638;51.362;12.472;2022-08-30T07:11:31;13.48;;;8.30;;
74267;SDS011;62638;51.362;12.472;2022-08-30T07:13:58;13.93;;;8.32;;
74267;SDS011;62638;51.362;12.472;2022-08-30T07:16:24;14.70;;;7.95;;
74267;SDS011;62638;51.362;12.472;2022-08-30T07:18:50;13.50;;;8.73;;
74267;SDS011;62638;51.362;12.472;2022-08-30T07:21:17;15.15;;;7.75;;
74267;SDS011;62638;51.362;12.472;2022-08-30T07:23:46;14.93;;;7.55;;
74267;SDS011;62638;51.362;12.472;2022-08-30T07:26:17;14.15;;;8.23;;
74267;SDS011;62638;51.362;12.472;2022-08-30T07:28:46;11.30;;;7.50;;
74267;SDS011;62638;51.362;12.472;2022-08-30T07:31:12;12.70;;;7.72;;
74267;SDS011;62638;51.362;12.472;2022-08-30T07:33:40;14.80;;;8.20;;
74267;SDS011;62638;51.362;12.472;2022-08-30T07:40:58;12.88;;;9.20;;
74267;SDS011;62638;51.362;12.472;2022-08-30T07:43:25;14.85;;;9.38;;
74267;SDS011;62638;51.362;12.472;2022-08-30T07:45:53;13.18;;;8.98;;
74267;SDS011;62638;51.362;12.472;2022-08-30T07:48:19;17.77;;;9.75;;
74267;SDS011;62638;51.362;12.472;2022-08-30T07:50:45;13.23;;;9.18;;
74267;SDS011;62638;51.362;12.472;2022-08-30T07:53:11;14.20;;;9.40;;
74267;SDS011;62638;51.362;12.472;2022-08-30T07:55:37;15.50;;;8.55;;
74267;SDS011;62638;51.362;12.472;2022-08-30T07:58:02;12.02;;;8.07;;
74267;SDS011;62638;51.362;12.472;2022-08-30T08:00:28;10.90;;;7.85;;
74267;SDS011;62638;51.362;12.472;2022-08-30T08:02:53;10.23;;;7.07;;
74267;SDS011;62638;51.362;12.472;2022-08-30T08:05:19;8.52;;;6.63;;
74267;SDS011;62638;51.362;12.472;2022-08-30T08:07:45;9.65;;;6.45;;
74267;SDS011;62638;51.362;12.472;2022-08-30T08:10:10;11.75;;;6.65;;
74267;SDS011;62638;51.362;12.472;2022-08-30T08:12:37;13.57;;;7.22;;
74267;SDS011;62638;51.362;12.472;2022-08-30T08:15:02;11.55;;;6.78;;
74267;SDS011;62638;51.362;12.472;2022-08-30T08:17:28;12.27;;;6.63;;
74267;SDS011;62638;51.362;12.472;2022-08-30T08:19:54;9.15;;;6.47;;
74267;SDS011;62638;51.362;12.472;2022-08-30T08:22:19;11.33;;;7.23;;
74267;SDS011;62638;51.362;12.472;2022-08-30T08:24:44;11.63;;;6.57;;
74267;SDS011;62638;51.362;12.472;2022-08-30T08:27:10;9.75;;;6.90;;
74267;SDS011;62638;51.362;12.472;2022-08-30T08:29:35;8.80;;;5.97;;
74267;SDS011;62638;51.362;12.472;2022-08-30T08:32:02;9.50;;;6.50;;
74267;SDS011;62638;51.362;12.472;2022-08-30T08:34:27;14.02;;;6.78;;
74267;SDS011;62638;51.362;12.472;2022-08-30T08:36:52;9.73;;;5.95;;
74267;SDS011;62638;51.362;12.472;2022-08-30T08:39:18;5.90;;;3.72;;
74267;SDS011;62638;51.362;12.472;2022-08-30T08:44:59;8.07;;;4.00;;
74267;SDS011;62638;51.362;12.472;2022-08-30T08:50:04;9.73;;;5.43;;
74267;SDS011;62638;51.362;12.472;2022-08-30T08:55:48;8.18;;;4.70;;
74267;SDS011;62638;51.362;12.472;2022-08-30T08:58:22;10.40;;;3.92;;
74267;SDS011;62638;51.362;12.472;2022-08-30T09:00:50;10.80;;;5.30;;
74267;SDS011;62638;51.362;12.472;2022-08-30T09:03:15;9.82;;;4.25;;
74267;SDS011;62638;51.362;12.472;2022-08-30T09:05:44;9.40;;;4.32;;
74267;SDS011;62638;51.362;12.472;2022-08-30T09:08:11;10.50;;;4.63;;
74267;SDS011;62638;51.362;12.472;2022-08-30T09:10:39;6.68;;;4.05;;
74267;SDS011;62638;51.362;12.472;2022-08-30T09:13:09;4.78;;;3.50;;
74267;SDS011;62638;51.362;12.472;2022-08-30T09:15:34;9.07;;;4.27;;
74267;SDS011;62638;51.362;12.472;2022-08-30T09:18:01;5.70;;;4.38;;
74267;SDS011;62638;51.362;12.472;2022-08-30T09:20:30;8.65;;;4.10;;
74267;SDS011;62638;51.362;12.472;2022-08-30T09:25:59;5.43;;;3.00;;
74267;SDS011;62638;51.362;12.472;2022-08-30T09:28:30;6.80;;;3.45;;
74267;SDS011;62638;51.362;12.472;2022-08-30T09:36:39;5.97;;;3.47;;
74267;SDS011;62638;51.362;12.472;2022-08-30T09:39:14;6.18;;;3.55;;
74267;SDS011;62638;51.362;12.472;2022-08-30T09:41:44;10.13;;;3.70;;
74267;SDS011;62638;51.362;12.472;2022-08-30T09:44:25;6.03;;;3.38;;
74267;SDS011;62638;51.362;12.472;2022-08-30T09:46:53;7.20;;;3.70;;
74267;SDS011;62638;51.362;12.472;2022-08-30T09:49:27;5.60;;;3.97;;
74267;SDS011;62638;51.362;12.472;2022-08-30T10:00:27;6.10;;;4.43;;
74267;SDS011;62638;51.362;12.472;2022-08-30T10:02:58;9.05;;;4.93;;
74267;SDS011;62638;51.362;12.472;2022-08-30T10:14:50;8.48;;;4.93;;
74267;SDS011;62638;51.362;12.472;2022-08-30T10:20:38;7.85;;;4.32;;
74267;SDS011;62638;51.362;12.472;2022-08-30T10:23:17;6.60;;;4.13;;
74267;SDS011;62638;51.362;12.472;2022-08-30T10:25:50;8.50;;;4.25;;
74267;SDS011;62638;51.362;12.472;2022-08-30T10:28:37;12.32;;;4.45;;
74267;SDS011;62638;51.362;12.472;2022-08-30T10:31:13;9.88;;;3.70;;
74267;SDS011;62638;51.362;12.472;2022-08-30T10:33:50;5.93;;;3.45;;
74267;SDS011;62638;51.362;12.472;2022-08-30T10:36:21;9.50;;;3.80;;
74267;SDS011;62638;51.362;12.472;2022-08-30T10:38:54;6.40;;;3.58;;
74267;SDS011;62638;51.362;12.472;2022-08-30T10:41:36;7.18;;;4.10;;
74267;SDS011;62638;51.362;12.472;2022-08-30T10:49:16;6.45;;;3.85;;
74267;SDS011;62638;51.362;12.472;2022-08-30T10:51:49;6.93;;;3.88;;
74267;SDS011;62638;51.362;12.472;2022-08-30T10:57:25;5.65;;;3.85;;
74267;SDS011;62638;51.362;12.472;2022-08-30T10:59:52;5.70;;;3.93;;
74267;SDS011;62638;51.362;12.472;2022-08-30T11:08:13;5.38;;;3.85;;
74267;SDS011;62638;51.362;12.472;2022-08-30T11:13:45;5.38;;;3.60;;
74267;SDS011;62638;51.362;12.472;2022-08-30T11:16:16;6.00;;;3.22;;
74267;SDS011;62638;51.362;12.472;2022-08-30T11:18:51;4.25;;;3.17;;
74267;SDS011;62638;51.362;12.472;2022-08-30T11:24:03;4.85;;;2.95;;
74267;SDS011;62638;51.362;12.472;2022-08-30T11:29:55;6.75;;;3.22;;
74267;SDS011;62638;51.362;12.472;2022-08-30T11:31:57;4.43;;;3.13;;
74267;SDS011;62638;51.362;12.472;2022-08-30T11:37:09;4.00;;;2.70;;
74267;SDS011;62638;51.362;12.472;2022-08-30T11:39:55;4.85;;;2.65;;
74267;SDS011;62638;51.362;12.472;2022-08-30T11:44:49;7.37;;;3.50;;
74267;SDS011;62638;51.362;12.472;2022-08-30T11:47:37;4.53;;;2.90;;
74267;SDS011;62638;51.362;12.472;2022-08-30T11:50:08;7.45;;;2.88;;
74267;SDS011;62638;51.362;12.472;2022-08-30T11:55:38;4.57;;;2.90;;
74267;SDS011;62638;51.362;12.472;2022-08-30T11:58:16;6.65;;;3.72;;
74267;SDS011;62638;51.362;12.472;2022-08-30T12:00:51;5.45;;;3.67;;
74267;SDS011;62638;51.362;12.472;2022-08-30T12:03:37;4.93;;;3.80;;
74267;SDS011;62638;51.362;12.472;2022-08-30T12:06:04;5.28;;;4.13;;
74267;SDS011;62638;51.362;12.472;2022-08-30T12:11:04;6.97;;;4.55;;
74267;SDS011;62638;51.362;12.472;2022-08-30T12:16:09;8.95;;;4.05;;
74267;SDS011;62638;51.362;12.472;2022-08-30T12:18:51;7.65;;;4.53;;
74267;SDS011;62638;51.362;12.472;2022-08-30T12:21:32;7.53;;;4.05;;
74267;SDS011;62638;51.362;12.472;2022-08-30T12:24:20;7.38;;;4.43;;
74267;SDS011;62638;51.362;12.472;2022-08-30T12:26:50;6.38;;;4.00;;
74267;SDS011;62638;51.362;12.472;2022-08-30T12:29:21;5.38;;;4.15;;
74267;SDS011;62638;51.362;12.472;2022-08-30T12:31:50;5.28;;;3.83;;
74267;SDS011;62638;51.362;12.472;2022-08-30T12:39:21;5.68;;;4.28;;
74267;SDS011;62638;51.362;12.472;2022-08-30T12:41:49;6.30;;;3.75;;
74267;SDS011;62638;51.362;12.472;2022-08-30T12:44:18;5.93;;;3.53;;
74267;SDS011;62638;51.362;12.472;2022-08-30T12:47:06;6.05;;;3.67;;
74267;SDS011;62638;51.362;12.472;2022-08-30T12:49:34;5.38;;;3.65;;
74267;SDS011;62638;51.362;12.472;2022-08-30T12:52:16;4.07;;;3.55;;
74267;SDS011;62638;51.362;12.472;2022-08-30T12:57:10;6.25;;;3.90;;
74267;SDS011;62638;51.362;12.472;2022-08-30T12:59:38;5.07;;;4.50;;
74267;SDS011;62638;51.362;12.472;2022-08-30T13:02:16;5.50;;;4.22;;
74267;SDS011;62638;51.362;12.472;2022-08-30T13:04:47;7.55;;;4.97;;
74267;SDS011;62638;51.362;12.472;2022-08-30T13:07:28;7.05;;;5.18;;
74267;SDS011;62638;51.362;12.472;2022-08-30T13:12:57;7.18;;;4.15;;
74267;SDS011;62638;51.362;12.472;2022-08-30T13:15:29;5.70;;;4.20;;
74267;SDS011;62638;51.362;12.472;2022-08-30T13:21:03;5.63;;;4.50;;
74267;SDS011;62638;51.362;12.472;2022-08-30T13:23:54;4.90;;;4.03;;
74267;SDS011;62638;51.362;12.472;2022-08-30T13:26:25;6.80;;;4.45;;
74267;SDS011;62638;51.362;12.472;2022-08-30T13:31:18;5.75;;;3.50;;
74267;SDS011;62638;51.362;12.472;2022-08-30T13:33:44;6.40;;;4.15;;
74267;SDS011;62638;51.362;12.472;2022-08-30T13:36:12;4.97;;;3.63;;
74267;SDS011;62638;51.362;12.472;2022-08-30T13:38:38;6.10;;;4.32;;
74267;SDS011;62638;51.362;12.472;2022-08-30T13:41:05;6.57;;;4.20;;
74267;SDS011;62638;51.362;12.472;2022-08-30T13:43:32;5.28;;;3.97;;
74267;SDS011;62638;51.362;12.472;2022-08-30T13:45:57;5.90;;;3.70;;
74267;SDS011;62638;51.362;12.472;2022-08-30T13:48:23;5.80;;;3.60;;
74267;SDS011;62638;51.362;12.472;2022-08-30T13:50:49;4.55;;;3.88;;
74267;SDS011;62638;51.362;12.472;2022-08-30T13:53:15;6.70;;;3.63;;
74267;SDS011;62638;51.362;12.472;2022-08-30T13:55:40;6.10;;;3.67;;
74267;SDS011;62638;51.362;12.472;2022-08-30T13:58:06;4.47;;;3.67;;
74267;SDS011;62638;51.362;12.472;2022-08-30T14:00:32;4.63;;;3.58;;
74267;SDS011;62638;51.362;12.472;2022-08-30T14:02:59;6.20;;;3.67;;
74267;SDS011;62638;51.362;12.472;2022-08-30T14:05:25;5.10;;;3.75;;
74267;SDS011;62638;51.362;12.472;2022-08-30T14:07:54;5.70;;;3.90;;
74267;SDS011;62638;51.362;12.472;2022-08-30T14:10:20;4.97;;;4.00;;
74267;SDS011;62638;51.362;12.472;2022-08-30T14:12:49;4.15;;;3.72;;
74267;SDS011;62638;51.362;12.472;2022-08-30T14:15:14;10.60;;;4.60;;
74267;SDS011;62638;51.362;12.472;2022-08-30T14:17:40;4.40;;;3.87;;
74267;SDS011;62638;51.362;12.472;2022-08-30T14:20:05;4.83;;;3.70;;
74267;SDS011;62638;51.362;12.472;2022-08-30T14:22:31;4.65;;;3.38;;
74267;SDS011;62638;51.362;12.472;2022-08-30T14:24:58;4.88;;;3.42;;
74267;SDS011;62638;51.362;12.472;2022-08-30T14:27:26;5.47;;;3.95;;
74267;SDS011;62638;51.362;12.472;2022-08-30T14:29:53;5.28;;;3.58;;
74267;SDS011;62638;51.362;12.472;2022-08-30T14:32:18;6.13;;;3.63;;
74267;SDS011;62638;51.362;12.472;2022-08-30T14:34:44;5.85;;;3.70;;
74267;SDS011;62638;51.362;12.472;2022-08-30T14:37:09;6.18;;;3.88;;
74267;SDS011;62638;51.362;12.472;2022-08-30T14:39:35;8.10;;;3.75;;
74267;SDS011;62638;51.362;12.472;2022-08-30T14:42:00;6.25;;;3.40;;
74267;SDS011;62638;51.362;12.472;2022-08-30T14:44:26;3.97;;;3.20;;
74267;SDS011;62638;51.362;12.472;2022-08-30T14:46:53;5.20;;;3.40;;
74267;SDS011;62638;51.362;12.472;2022-08-30T14:49:19;5.60;;;3.35;;
74267;SDS011;62638;51.362;12.472;2022-08-30T14:51:46;4.15;;;3.05;;
74267;SDS011;62638;51.362;12.472;2022-08-30T14:54:12;4.18;;;3.40;;
74267;SDS011;62638;51.362;12.472;2022-08-30T14:56:39;4.88;;;3.00;;
74267;SDS011;62638;51.362;12.472;2022-08-30T14:59:05;6.35;;;3.63;;
74267;SDS011;62638;51.362;12.472;2022-08-30T15:01:31;7.53;;;3.80;;
74267;SDS011;62638;51.362;12.472;2022-08-30T15:03:56;6.22;;;3.42;;
74267;SDS011;62638;51.362;12.472;2022-08-30T15:06:23;4.55;;;4.13;;
74267;SDS011;62638;51.362;12.472;2022-08-30T15:08:48;4.93;;;3.28;;
74267;SDS011;62638;51.362;12.472;2022-08-30T15:11:14;5.40;;;3.75;;
74267;SDS011;62638;51.362;12.472;2022-08-30T15:13:42;4.18;;;3.30;;
74267;SDS011;62638;51.362;12.472;2022-08-30T15:16:12;5.80;;;3.80;;
74267;SDS011;62638;51.362;12.472;2022-08-30T15:18:56;5.35;;;3.63;;
74267;SDS011;62638;51.362;12.472;2022-08-30T15:21:23;5.70;;;4.00;;
74267;SDS011;62638;51.362;12.472;2022-08-30T15:23:52;4.35;;;2.97;;
74267;SDS011;62638;51.362;12.472;2022-08-30T15:26:17;6.05;;;3.05;;
74267;SDS011;62638;51.362;12.472;2022-08-30T15:28:44;5.35;;;2.80;;
74267;SDS011;62638;51.362;12.472;2022-08-30T15:31:10;6.35;;;3.38;;
74267;SDS011;62638;51.362;12.472;2022-08-30T15:33:36;4.13;;;2.95;;
74267;SDS011;62638;51.362;12.472;2022-08-30T15:36:03;7.00;;;3.42;;
74267;SDS011;62638;51.362;12.472;2022-08-30T15:38:30;4.75;;;3.90;;
74267;SDS011;62638;51.362;12.472;2022-08-30T15:40:55;5.07;;;3.55;;
74267;SDS011;62638;51.362;12.472;2022-08-30T15:43:27;4.57;;;3.33;;
74267;SDS011;62638;51.362;12.472;2022-08-30T15:45:52;5.38;;;3.75;;
74267;SDS011;62638;51.362;12.472;2022-08-30T15:48:18;5.78;;;3.63;;
74267;SDS011;62638;51.362;12.472;2022-08-30T15:50:44;3.83;;;3.07;;
74267;SDS011;62638;51.362;12.472;2022-08-30T15:53:10;4.13;;;3.33;;
74267;SDS011;62638;51.362;12.472;2022-08-30T15:55:36;4.13;;;3.42;;
74267;SDS011;62638;51.362;12.472;2022-08-30T15:58:01;3.63;;;3.03;;
74267;SDS011;62638;51.362;12.472;2022-08-30T16:00:26;3.87;;;2.93;;
74267;SDS011;62638;51.362;12.472;2022-08-30T16:02:52;3.20;;;2.90;;
74267;SDS011;62638;51.362;12.472;2022-08-30T16:05:17;5.35;;;3.13;;
74267;SDS011;62638;51.362;12.472;2022-08-30T16:07:43;8.57;;;3.95;;
74267;SDS011;62638;51.362;12.472;2022-08-30T16:10:11;3.67;;;3.28;;